createdAt,value
2017-03-24T00:00:27.363Z,81.30
2017-03-24T00:01:28.662Z,81.60
2017-03-24T00:02:29.008Z,81.30
2017-03-24T00:03:29.286Z,81.60
2017-03-24T00:04:30.016Z,81.40
2017-03-24T00:05:30.122Z,81.40
2017-03-24T00:06:30.159Z,81.30
2017-03-24T00:07:30.247Z,81.40
2017-03-24T00:08:30.443Z,81.30
2017-03-24T00:09:30.575Z,81.30
2017-03-24T00:10:30.738Z,81.00
2017-03-24T00:11:31.442Z,81.20
2017-03-24T00:12:31.620Z,81.30
2017-03-24T00:13:31.750Z,81.30
2017-03-24T00:14:31.984Z,81.10
2017-03-24T00:15:32.079Z,81.40
2017-03-24T00:16:32.244Z,81.50
2017-03-24T00:17:32.416Z,81.70
2017-03-24T00:18:32.491Z,82.00
2017-03-24T00:19:32.686Z,82.20
2017-03-24T00:20:32.794Z,82.40
2017-03-24T00:21:33.591Z,82.90
2017-03-24T00:22:33.696Z,82.70
2017-03-24T00:23:33.795Z,82.70
2017-03-24T00:24:33.911Z,82.80
2017-03-24T00:25:34.043Z,83.00
2017-03-24T00:26:34.153Z,82.90
2017-03-24T00:27:34.302Z,83.10
2017-03-24T00:28:35.250Z,83.30
2017-03-24T00:29:36.827Z,83.00
2017-03-24T00:30:38.103Z,83.50
2017-03-24T00:31:38.957Z,83.70
2017-03-24T00:32:39.073Z,83.20
2017-03-24T00:33:39.898Z,83.30
2017-03-24T00:34:39.947Z,83.20
2017-03-24T00:35:39.990Z,83.20
2017-03-24T00:36:39.947Z,83.60
2017-03-24T00:37:39.977Z,83.70
2017-03-24T00:38:39.944Z,83.70
2017-03-24T00:39:39.938Z,84.40
2017-03-24T00:40:39.963Z,84.40
2017-03-24T00:41:39.967Z,84.40
2017-03-24T00:42:39.987Z,84.50
2017-03-24T00:43:39.952Z,84.60
2017-03-24T00:44:39.933Z,84.40
2017-03-24T00:45:40.007Z,84.10
2017-03-24T00:46:39.995Z,84.40
2017-03-24T00:47:40.014Z,84.30
2017-03-24T00:48:40.010Z,84.20
2017-03-24T00:49:39.995Z,84.40
2017-03-24T00:50:39.977Z,84.30
2017-03-24T00:51:39.920Z,84.50
2017-03-24T00:52:39.869Z,85.40
2017-03-24T00:53:39.851Z,84.40
2017-03-24T00:54:39.798Z,84.40
2017-03-24T00:55:39.759Z,84.30
2017-03-24T00:56:39.784Z,84.40
2017-03-24T00:57:40.316Z,84.60
2017-03-24T00:58:40.354Z,84.80
2017-03-24T00:59:41.100Z,84.70
2017-03-24T01:00:41.816Z,84.60
2017-03-24T01:01:41.783Z,84.50
2017-03-24T01:02:41.799Z,84.70
2017-03-24T01:03:42.816Z,84.50
2017-03-24T01:04:42.797Z,84.70
2017-03-24T01:05:42.776Z,85.00
2017-03-24T01:06:42.780Z,85.00
2017-03-24T01:07:43.591Z,85.00
2017-03-24T01:08:44.410Z,84.70
2017-03-24T01:09:44.414Z,84.60
2017-03-24T01:10:44.430Z,84.50
2017-03-24T01:11:44.459Z,84.60
2017-03-24T01:12:44.560Z,84.90
2017-03-24T01:13:44.602Z,84.50
2017-03-24T01:14:44.754Z,84.70
2017-03-24T01:15:45.518Z,84.70
2017-03-24T01:16:45.582Z,84.70
2017-03-24T01:17:45.656Z,84.70
2017-03-24T01:18:45.665Z,84.80
2017-03-24T01:19:45.693Z,85.00
2017-03-24T01:20:45.748Z,85.30
2017-03-24T01:21:45.729Z,85.20
2017-03-24T01:22:46.188Z,85.50
2017-03-24T01:23:46.206Z,85.90
2017-03-24T01:24:46.678Z,85.70
2017-03-24T01:25:47.581Z,85.80
2017-03-24T01:26:47.559Z,85.40
2017-03-24T01:27:47.582Z,85.20
2017-03-24T01:28:47.614Z,85.40
2017-03-24T01:29:48.281Z,85.20
2017-03-24T01:30:48.261Z,85.10
2017-03-24T01:31:48.261Z,85.00
2017-03-24T01:32:48.984Z,85.70
2017-03-24T01:33:48.995Z,85.40
2017-03-24T01:34:48.997Z,85.00
2017-03-24T01:35:49.063Z,84.50
2017-03-24T01:36:49.002Z,84.10
2017-03-24T01:37:48.959Z,84.10
2017-03-24T01:38:49.035Z,83.80
2017-03-24T01:39:49.731Z,83.70
2017-03-24T01:40:49.725Z,83.60
2017-03-24T01:41:49.726Z,83.20
2017-03-24T01:42:49.688Z,83.20
2017-03-24T01:43:49.809Z,84.00
2017-03-24T01:44:49.803Z,83.10
2017-03-24T01:45:49.871Z,84.30
2017-03-24T01:46:49.848Z,83.50
2017-03-24T01:47:49.818Z,83.60
2017-03-24T01:48:49.810Z,83.20
2017-03-24T01:49:49.816Z,83.30
2017-03-24T01:50:49.820Z,83.20
2017-03-24T01:51:49.810Z,83.10
2017-03-24T01:52:49.815Z,83.10
2017-03-24T01:53:49.855Z,83.40
2017-03-24T01:54:49.886Z,83.60
2017-03-24T01:55:54.140Z,83.30
2017-03-24T01:56:54.157Z,83.30
2017-03-24T01:57:54.879Z,83.40
2017-03-24T01:58:54.919Z,82.90
2017-03-24T01:59:54.866Z,82.90
2017-03-24T02:00:54.901Z,82.90
2017-03-24T02:01:55.081Z,83.20
2017-03-24T02:02:55.066Z,83.40
2017-03-24T02:03:55.073Z,83.50
2017-03-24T02:04:55.035Z,83.70
2017-03-24T02:05:55.158Z,83.70
2017-03-24T02:06:55.171Z,83.80
2017-03-24T02:07:55.182Z,84.00
2017-03-24T02:08:55.247Z,84.60
2017-03-24T02:09:55.236Z,83.50
2017-03-24T02:10:55.187Z,83.50
2017-03-24T02:11:55.205Z,83.40
2017-03-24T02:12:55.250Z,83.30
2017-03-24T02:13:55.238Z,83.20
2017-03-24T02:14:55.187Z,83.20
2017-03-24T02:15:55.882Z,82.90
2017-03-24T02:16:55.855Z,82.90
2017-03-24T02:17:55.842Z,82.80
2017-03-24T02:18:56.563Z,83.00
2017-03-24T02:19:56.508Z,82.80
2017-03-24T02:20:56.462Z,82.70
2017-03-24T02:21:56.455Z,82.90
2017-03-24T02:22:56.499Z,82.90
2017-03-24T02:23:57.370Z,83.00
2017-03-24T02:25:01.861Z,83.00
2017-03-24T02:26:01.990Z,82.30
2017-03-24T02:27:02.022Z,82.50
2017-03-24T02:28:02.019Z,82.70
2017-03-24T02:29:02.023Z,82.70
2017-03-24T02:30:01.994Z,82.30
2017-03-24T02:31:01.990Z,82.40
2017-03-24T02:32:02.031Z,82.70
2017-03-24T02:33:02.019Z,82.70
2017-03-24T02:34:02.071Z,82.50
2017-03-24T02:35:02.070Z,82.30
2017-03-24T02:36:02.026Z,82.70
2017-03-24T02:37:02.053Z,82.50
2017-03-24T02:38:02.048Z,82.50
2017-03-24T02:39:02.198Z,82.40
2017-03-24T02:40:02.250Z,82.30
2017-03-24T02:41:02.255Z,82.00
2017-03-24T02:42:02.262Z,82.00
2017-03-24T02:43:02.230Z,81.90
2017-03-24T02:44:02.352Z,82.10
2017-03-24T02:45:02.422Z,82.30
2017-03-24T02:46:02.419Z,82.20
2017-03-24T02:47:02.435Z,82.40
2017-03-24T02:48:02.458Z,82.70
2017-03-24T02:49:02.449Z,82.50
2017-03-24T02:50:02.448Z,82.00
2017-03-24T02:51:02.443Z,81.60
2017-03-24T02:52:02.485Z,81.20
2017-03-24T02:53:02.465Z,81.30
2017-03-24T02:54:02.494Z,81.60
2017-03-24T02:55:02.555Z,81.90
2017-03-24T02:56:02.589Z,82.10
2017-03-24T02:57:02.562Z,82.50
2017-03-24T02:58:02.557Z,82.90
2017-03-24T02:59:02.576Z,82.90
2017-03-24T03:00:02.610Z,83.00
2017-03-24T03:01:02.666Z,83.50
2017-03-24T03:02:02.626Z,83.30
2017-03-24T03:03:02.644Z,82.90
2017-03-24T03:04:02.723Z,82.60
2017-03-24T03:05:02.757Z,82.50
2017-03-24T03:06:02.748Z,82.50
2017-03-24T03:07:02.840Z,81.80
2017-03-24T03:08:02.810Z,81.40
2017-03-24T03:09:03.317Z,80.90
2017-03-24T03:10:03.351Z,81.40
2017-03-24T03:11:03.658Z,81.90
2017-03-24T03:12:03.649Z,81.30
2017-03-24T03:13:03.703Z,81.50
2017-03-24T03:14:03.695Z,82.00
2017-03-24T03:15:03.708Z,82.40
2017-03-24T03:16:03.718Z,82.70
2017-03-24T03:17:03.768Z,81.90
2017-03-24T03:18:03.799Z,81.20
2017-03-24T03:19:03.801Z,81.00
2017-03-24T03:20:03.797Z,80.10
2017-03-24T03:21:03.804Z,80.00
2017-03-24T03:22:03.847Z,79.50
2017-03-24T03:23:03.801Z,79.30
2017-03-24T03:24:03.814Z,79.10
2017-03-24T03:25:05.499Z,79.00
2017-03-24T03:26:06.247Z,79.70
2017-03-24T03:27:06.266Z,79.20
2017-03-24T03:28:06.334Z,79.00
2017-03-24T03:29:06.375Z,78.90
2017-03-24T03:30:06.390Z,78.90
2017-03-24T03:31:06.421Z,79.40
2017-03-24T03:32:06.413Z,79.80
2017-03-24T03:33:06.391Z,79.90
2017-03-24T03:34:06.398Z,80.40
2017-03-24T03:35:06.427Z,80.60
2017-03-24T03:36:06.453Z,80.70
2017-03-24T03:37:06.468Z,81.10
2017-03-24T03:38:06.466Z,82.00
2017-03-24T03:39:06.509Z,81.60
2017-03-24T03:40:06.512Z,81.80
2017-03-24T03:41:06.571Z,81.80
2017-03-24T03:42:06.548Z,81.50
2017-03-24T03:43:06.573Z,81.00
2017-03-24T03:44:06.593Z,81.20
2017-03-24T03:45:06.606Z,80.30
2017-03-24T03:46:06.653Z,80.10
2017-03-24T03:47:07.436Z,80.70
2017-03-24T03:48:07.441Z,81.40
2017-03-24T03:49:07.443Z,81.80
2017-03-24T03:50:07.490Z,82.00
2017-03-24T03:51:07.521Z,82.40
2017-03-24T03:52:07.487Z,83.10
2017-03-24T03:53:07.454Z,83.80
2017-03-24T03:54:07.506Z,84.00
2017-03-24T03:55:07.489Z,83.80
2017-03-24T03:56:07.502Z,83.70
2017-03-24T03:57:07.518Z,83.10
2017-03-24T03:58:07.541Z,83.10
2017-03-24T03:59:07.518Z,83.10
2017-03-24T04:00:07.482Z,83.00
2017-03-24T04:01:07.603Z,83.40
2017-03-24T04:02:07.628Z,84.00
2017-03-24T04:03:07.649Z,83.60
2017-03-24T04:04:07.654Z,84.70
2017-03-24T04:05:07.694Z,84.40
2017-03-24T04:06:07.741Z,84.30
2017-03-24T04:07:07.727Z,84.30
2017-03-24T04:08:08.506Z,85.10
2017-03-24T04:09:08.561Z,83.60
2017-03-24T04:10:08.604Z,84.10
2017-03-24T04:11:08.611Z,84.10
2017-03-24T04:12:08.642Z,84.00
2017-03-24T04:13:08.638Z,83.80
2017-03-24T04:14:08.703Z,84.00
2017-03-24T04:15:08.775Z,83.70
2017-03-24T04:16:08.780Z,83.50
2017-03-24T04:17:09.453Z,83.20
2017-03-24T04:18:09.427Z,83.50
2017-03-24T04:19:09.455Z,84.30
2017-03-24T04:20:09.490Z,84.10
2017-03-24T04:21:09.554Z,84.10
2017-03-24T04:22:09.553Z,83.90
2017-03-24T04:23:09.549Z,83.50
2017-03-24T04:24:09.528Z,82.70
2017-03-24T04:25:10.424Z,83.80
2017-03-24T04:26:10.452Z,84.50
2017-03-24T04:27:10.434Z,84.90
2017-03-24T04:28:10.467Z,84.90
2017-03-24T04:29:10.457Z,85.10
2017-03-24T04:30:10.522Z,85.80
2017-03-24T04:31:10.567Z,85.30
2017-03-24T04:32:11.295Z,85.10
2017-03-24T04:33:11.266Z,85.40
2017-03-24T04:34:11.235Z,85.00
2017-03-24T04:35:17.630Z,85.30
2017-03-24T04:36:17.669Z,85.60
2017-03-24T04:37:17.642Z,86.00
2017-03-24T04:38:17.675Z,86.30
2017-03-24T04:39:17.692Z,86.50
2017-03-24T04:40:17.698Z,86.30
2017-03-24T04:41:17.700Z,87.00
2017-03-24T04:42:17.722Z,86.60
2017-03-24T04:43:17.739Z,85.30
2017-03-24T04:44:17.714Z,85.30
2017-03-24T04:45:24.312Z,84.50
2017-03-24T04:46:24.354Z,84.40
2017-03-24T04:47:24.357Z,83.40
2017-03-24T04:48:24.363Z,83.20
2017-03-24T04:49:24.348Z,83.30
2017-03-24T04:50:24.406Z,83.30
2017-03-24T04:51:24.431Z,83.80
2017-03-24T04:52:24.440Z,83.10
2017-03-24T04:53:24.438Z,83.10
2017-03-24T04:54:25.847Z,83.20
2017-03-24T04:55:25.822Z,83.30
2017-03-24T04:56:25.866Z,83.50
2017-03-24T04:57:26.582Z,83.80
2017-03-24T04:58:26.557Z,84.00
2017-03-24T04:59:26.538Z,83.90
2017-03-24T05:00:26.581Z,83.90
2017-03-24T05:01:26.599Z,84.00
2017-03-24T05:02:26.593Z,83.50
2017-03-24T05:03:26.563Z,83.20
2017-03-24T05:04:26.599Z,83.30
2017-03-24T05:05:26.558Z,83.10
2017-03-24T05:06:26.573Z,82.80
2017-03-24T05:07:26.534Z,83.30
2017-03-24T05:08:26.511Z,82.40
2017-03-24T05:09:26.529Z,82.60
2017-03-24T05:10:26.526Z,83.00
2017-03-24T05:11:26.491Z,83.00
2017-03-24T05:12:27.227Z,83.80
2017-03-24T05:13:27.162Z,84.00
2017-03-24T05:14:27.184Z,83.10
2017-03-24T05:15:27.156Z,83.60
2017-03-24T05:16:27.118Z,83.70
2017-03-24T05:17:28.315Z,83.90
2017-03-24T05:18:28.319Z,83.90
2017-03-24T05:19:28.398Z,83.60
2017-03-24T05:20:28.368Z,83.40
2017-03-24T05:21:28.414Z,83.20
2017-03-24T05:22:28.358Z,82.90
2017-03-24T05:23:28.322Z,83.00
2017-03-24T05:24:28.287Z,83.60
2017-03-24T05:25:28.256Z,83.10
2017-03-24T05:26:28.237Z,83.60
2017-03-24T05:27:28.961Z,83.60
2017-03-24T05:28:28.969Z,83.20
2017-03-24T05:29:28.894Z,83.30
2017-03-24T05:30:28.889Z,83.50
2017-03-24T05:31:28.868Z,83.40
2017-03-24T05:32:29.099Z,83.10
2017-03-24T05:33:29.071Z,83.30
2017-03-24T05:34:29.034Z,83.00
2017-03-24T05:35:29.030Z,82.90
2017-03-24T05:36:29.114Z,83.00
2017-03-24T05:37:29.846Z,82.90
2017-03-24T05:38:29.822Z,82.70
2017-03-24T05:39:29.846Z,82.80
2017-03-24T05:40:31.016Z,82.50
2017-03-24T05:41:31.016Z,82.30
2017-03-24T05:42:31.023Z,81.70
2017-03-24T05:43:30.946Z,82.50
2017-03-24T05:44:30.926Z,81.50
2017-03-24T05:45:30.890Z,81.30
2017-03-24T05:46:30.894Z,80.90
2017-03-24T05:47:30.859Z,80.50
2017-03-24T05:48:30.837Z,80.90
2017-03-24T05:49:30.816Z,81.20
2017-03-24T05:50:30.770Z,80.90
2017-03-24T05:51:30.775Z,80.80
2017-03-24T05:52:30.786Z,80.50
2017-03-24T05:53:30.759Z,80.20
2017-03-24T05:54:31.445Z,79.70
2017-03-24T05:55:31.609Z,79.60
2017-03-24T05:56:31.577Z,79.70
2017-03-24T05:57:31.632Z,79.10
2017-03-24T05:58:31.715Z,78.70
2017-03-24T05:59:32.443Z,79.00
2017-03-24T06:00:32.411Z,78.20
2017-03-24T06:01:32.468Z,78.20
2017-03-24T06:02:32.443Z,78.20
2017-03-24T06:03:32.395Z,78.10
2017-03-24T06:04:32.406Z,77.80
2017-03-24T06:05:32.414Z,77.70
2017-03-24T06:06:32.467Z,77.50
2017-03-24T06:07:32.514Z,77.40
2017-03-24T06:08:32.668Z,77.40
2017-03-24T06:09:32.691Z,78.50
2017-03-24T06:10:32.740Z,77.30
2017-03-24T06:11:33.441Z,76.70
2017-03-24T06:12:33.476Z,77.00
2017-03-24T06:13:33.466Z,76.10
2017-03-24T06:14:33.474Z,75.80
2017-03-24T06:15:33.428Z,75.60
2017-03-24T06:16:33.391Z,75.80
2017-03-24T06:17:33.466Z,75.50
2017-03-24T06:18:33.460Z,75.30
2017-03-24T06:19:33.459Z,74.80
2017-03-24T06:20:33.461Z,74.30
2017-03-24T06:21:33.571Z,74.10
2017-03-24T06:22:33.556Z,74.50
2017-03-24T06:23:33.515Z,74.00
2017-03-24T06:24:33.454Z,74.00
2017-03-24T06:25:33.418Z,73.50
2017-03-24T06:26:34.115Z,73.10
2017-03-24T06:27:34.096Z,72.50
2017-03-24T06:28:34.094Z,72.10
2017-03-24T06:29:34.042Z,72.80
2017-03-24T06:30:33.995Z,72.40
2017-03-24T06:31:33.975Z,73.00
2017-03-24T06:32:34.037Z,73.20
2017-03-24T06:33:34.311Z,73.00
2017-03-24T06:34:34.329Z,73.10
2017-03-24T06:35:34.295Z,72.70
2017-03-24T06:36:34.251Z,72.30
2017-03-24T06:37:34.300Z,71.80
2017-03-24T06:38:35.251Z,72.00
2017-03-24T06:39:36.102Z,71.70
2017-03-24T06:40:36.105Z,71.30
2017-03-24T06:41:36.058Z,70.70
2017-03-24T06:42:36.045Z,70.60
2017-03-24T06:43:35.996Z,70.50
2017-03-24T06:44:35.943Z,70.10
2017-03-24T06:45:35.881Z,70.40
2017-03-24T06:46:35.827Z,69.80
2017-03-24T06:47:36.579Z,70.10
2017-03-24T06:48:36.527Z,69.90
2017-03-24T06:49:36.497Z,69.40
2017-03-24T06:50:36.423Z,69.40
2017-03-24T06:51:36.363Z,68.90
2017-03-24T06:52:36.303Z,68.60
2017-03-24T06:53:36.298Z,68.20
2017-03-24T06:54:36.251Z,68.00
2017-03-24T06:55:36.220Z,68.20
2017-03-24T06:56:36.295Z,68.40
2017-03-24T06:57:36.266Z,68.90
2017-03-24T06:58:36.275Z,68.90
2017-03-24T06:59:36.338Z,69.00
2017-03-24T07:00:36.274Z,68.00
2017-03-24T07:01:36.246Z,68.10
2017-03-24T07:02:36.200Z,68.60
2017-03-24T07:03:36.158Z,67.50
2017-03-24T07:04:36.385Z,66.90
2017-03-24T07:05:36.429Z,68.00
2017-03-24T07:06:36.367Z,67.80
2017-03-24T07:07:37.051Z,67.30
2017-03-24T07:08:37.040Z,68.10
2017-03-24T07:09:37.002Z,67.70
2017-03-24T07:10:36.967Z,67.60
2017-03-24T07:11:36.928Z,67.50
2017-03-24T07:12:36.869Z,67.90
2017-03-24T07:13:36.814Z,67.50
2017-03-24T07:14:36.759Z,67.80
2017-03-24T07:15:36.693Z,68.10
2017-03-24T07:16:36.678Z,68.60
2017-03-24T07:17:36.614Z,68.50
2017-03-24T07:18:36.580Z,68.00
2017-03-24T07:19:36.540Z,68.10
2017-03-24T07:20:36.636Z,68.20
2017-03-24T07:21:36.601Z,68.40
2017-03-24T07:22:36.535Z,67.90
2017-03-24T07:23:36.475Z,67.90
2017-03-24T07:24:37.184Z,68.00
2017-03-24T07:25:37.320Z,67.80
2017-03-24T07:26:37.267Z,68.70
2017-03-24T07:27:37.246Z,68.20
2017-03-24T07:28:37.187Z,68.30
2017-03-24T07:29:37.178Z,67.80
2017-03-24T07:30:37.231Z,67.70
2017-03-24T07:31:37.234Z,68.10
2017-03-24T07:32:37.179Z,67.60
2017-03-24T07:33:37.177Z,67.30
2017-03-24T07:34:37.162Z,68.10
2017-03-24T07:35:38.559Z,67.20
2017-03-24T07:36:38.585Z,67.40
2017-03-24T07:37:38.637Z,67.30
2017-03-24T07:38:38.590Z,67.30
2017-03-24T07:39:38.542Z,67.50
2017-03-24T07:40:38.483Z,67.60
2017-03-24T07:41:38.515Z,67.00
2017-03-24T07:42:38.496Z,66.50
2017-03-24T07:43:38.421Z,66.20
2017-03-24T07:44:38.425Z,66.60
2017-03-24T07:45:38.472Z,67.10
2017-03-24T07:46:38.410Z,66.70
2017-03-24T07:47:38.378Z,67.20
2017-03-24T07:48:39.058Z,67.60
2017-03-24T07:49:39.096Z,68.10
2017-03-24T07:50:39.802Z,67.50
2017-03-24T07:51:39.772Z,67.80
2017-03-24T07:52:39.723Z,67.70
2017-03-24T07:53:39.823Z,67.40
2017-03-24T07:54:39.801Z,66.90
2017-03-24T07:55:39.733Z,67.10
2017-03-24T07:56:39.737Z,67.10
2017-03-24T07:57:39.697Z,67.00
2017-03-24T07:58:39.725Z,68.00
2017-03-24T07:59:39.789Z,67.00
2017-03-24T08:00:39.740Z,67.70
2017-03-24T08:01:39.688Z,67.60
2017-03-24T08:02:39.797Z,68.00
2017-03-24T08:03:39.832Z,68.20
2017-03-24T08:04:39.765Z,68.50
2017-03-24T08:05:39.742Z,68.10
2017-03-24T08:06:39.678Z,67.90
2017-03-24T08:07:39.733Z,67.50
2017-03-24T08:08:39.735Z,67.50
2017-03-24T08:09:39.800Z,67.80
2017-03-24T08:10:39.750Z,68.20
2017-03-24T08:11:39.766Z,68.20
2017-03-24T08:12:39.737Z,68.90
2017-03-24T08:13:39.743Z,68.60
2017-03-24T08:14:39.714Z,68.40
2017-03-24T08:15:39.661Z,68.60
2017-03-24T08:16:39.621Z,68.30
2017-03-24T08:17:39.619Z,68.20
2017-03-24T08:18:39.556Z,67.90
2017-03-24T08:19:39.527Z,67.50
2017-03-24T08:20:39.486Z,67.20
2017-03-24T08:21:39.440Z,67.30
2017-03-24T08:22:40.121Z,66.50
2017-03-24T08:23:40.122Z,66.70
2017-03-24T08:24:40.157Z,67.10
2017-03-24T08:25:40.104Z,67.00
2017-03-24T08:26:40.062Z,67.00
2017-03-24T08:27:39.992Z,67.00
2017-03-24T08:28:39.974Z,67.00
2017-03-24T08:29:39.995Z,66.80
2017-03-24T08:30:39.959Z,66.60
2017-03-24T08:31:39.946Z,66.30
2017-03-24T08:32:39.901Z,66.40
2017-03-24T08:33:39.877Z,66.00
2017-03-24T08:34:40.241Z,65.90
2017-03-24T08:35:40.195Z,65.90
2017-03-24T08:36:40.128Z,66.10
2017-03-24T08:37:40.086Z,65.90
2017-03-24T08:38:40.021Z,66.20
2017-03-24T08:39:40.046Z,66.30
2017-03-24T08:40:40.055Z,66.00
2017-03-24T08:41:40.093Z,65.70
2017-03-24T08:42:40.877Z,65.80
2017-03-24T08:43:40.866Z,64.00
2017-03-24T08:44:40.851Z,64.80
2017-03-24T08:45:40.827Z,63.20
2017-03-24T08:46:40.840Z,62.70
2017-03-24T08:47:40.870Z,62.00
2017-03-24T08:48:40.876Z,61.70
2017-03-24T08:49:40.868Z,61.70
2017-03-24T08:50:40.830Z,61.40
2017-03-24T08:51:40.842Z,61.00
2017-03-24T08:52:40.814Z,61.00
2017-03-24T08:53:40.810Z,62.30
2017-03-24T08:54:40.734Z,61.70
2017-03-24T08:55:41.403Z,61.60
2017-03-24T08:56:42.815Z,62.10
2017-03-24T08:57:42.862Z,63.00
2017-03-24T08:58:42.859Z,62.50
2017-03-24T08:59:42.841Z,61.60
2017-03-24T09:00:42.822Z,61.60
2017-03-24T09:01:42.762Z,60.60
2017-03-24T09:02:43.466Z,60.40
2017-03-24T09:03:43.443Z,60.80
2017-03-24T09:04:43.430Z,60.80
2017-03-24T09:05:43.485Z,61.00
2017-03-24T09:06:43.455Z,60.80
2017-03-24T09:07:43.458Z,60.60
2017-03-24T09:08:43.486Z,60.20
2017-03-24T09:09:44.299Z,58.60
2017-03-24T09:10:44.375Z,57.00
2017-03-24T09:11:45.045Z,55.70
2017-03-24T09:12:45.001Z,54.80
2017-03-24T09:13:44.966Z,53.60
2017-03-24T09:14:45.902Z,53.00
2017-03-24T09:15:46.645Z,52.80
2017-03-24T09:16:47.461Z,52.40
2017-03-24T09:17:48.152Z,51.60
2017-03-24T09:18:48.082Z,51.20
2017-03-24T09:19:48.038Z,50.80
2017-03-24T09:20:48.056Z,49.40
2017-03-24T09:21:48.135Z,49.20
2017-03-24T09:22:49.229Z,48.90
2017-03-24T09:23:49.190Z,48.30
2017-03-24T09:24:49.386Z,49.00
2017-03-24T09:25:49.390Z,49.50
2017-03-24T09:26:49.350Z,49.20
2017-03-24T09:27:49.358Z,48.50
2017-03-24T09:28:49.303Z,48.00
2017-03-24T09:29:49.234Z,48.30
2017-03-24T09:30:49.264Z,49.00
2017-03-24T09:31:49.284Z,49.80
2017-03-24T09:32:49.242Z,49.60
2017-03-24T09:33:49.340Z,48.90
2017-03-24T09:34:49.322Z,48.90
2017-03-24T09:35:49.317Z,47.20
2017-03-24T09:36:49.258Z,45.00
2017-03-24T09:37:49.250Z,42.90
2017-03-24T09:38:49.974Z,41.50
2017-03-24T09:39:50.058Z,41.00
2017-03-24T09:40:50.082Z,39.80
2017-03-24T09:41:50.810Z,38.50
2017-03-24T09:42:51.489Z,37.50
2017-03-24T09:43:51.455Z,36.30
2017-03-24T09:44:51.385Z,36.00
2017-03-24T09:45:51.391Z,36.30
2017-03-24T09:46:51.371Z,37.10
2017-03-24T09:47:51.415Z,37.70
2017-03-24T09:48:51.394Z,38.00
2017-03-24T09:49:51.353Z,38.10
2017-03-24T09:50:51.395Z,37.50
2017-03-24T09:51:51.414Z,36.90
2017-03-24T09:52:51.393Z,36.60
2017-03-24T09:53:51.407Z,35.90
2017-03-24T09:54:51.357Z,35.80
2017-03-24T09:55:53.355Z,35.40
2017-03-24T09:56:54.718Z,35.60
2017-03-24T09:57:54.681Z,35.70
2017-03-24T09:58:54.646Z,36.60
2017-03-24T09:59:54.613Z,37.40
2017-03-24T10:00:54.655Z,38.00
2017-03-24T10:01:54.669Z,38.00
2017-03-24T10:02:54.750Z,37.80
2017-03-24T10:03:54.721Z,37.00
2017-03-24T10:04:54.713Z,36.40
2017-03-24T10:05:54.724Z,35.90
2017-03-24T10:06:54.706Z,35.00
2017-03-24T10:07:54.681Z,33.80
2017-03-24T10:08:54.650Z,32.00
2017-03-24T10:09:54.597Z,32.40
2017-03-24T10:10:54.574Z,32.10
2017-03-24T10:11:54.572Z,32.00
2017-03-24T10:12:54.518Z,31.40
2017-03-24T10:13:54.478Z,31.10
2017-03-24T10:14:54.441Z,31.80
2017-03-24T10:15:54.430Z,31.80
2017-03-24T10:16:54.391Z,31.50
2017-03-24T10:17:54.341Z,31.10
2017-03-24T10:18:54.290Z,30.30
2017-03-24T10:19:54.275Z,29.80
2017-03-24T10:20:54.245Z,29.80
2017-03-24T10:21:54.209Z,29.10
2017-03-24T10:22:54.205Z,28.40
2017-03-24T10:23:54.198Z,27.80
2017-03-24T10:24:57.452Z,27.20
2017-03-24T10:25:57.435Z,27.20
2017-03-24T10:26:57.382Z,27.20
2017-03-24T10:27:57.381Z,27.00
2017-03-24T10:28:57.391Z,27.00
2017-03-24T10:29:58.146Z,27.40
2017-03-24T10:30:58.154Z,27.90
2017-03-24T10:31:58.084Z,27.80
2017-03-24T10:32:58.014Z,28.30
2017-03-24T10:33:57.980Z,28.40
2017-03-24T10:34:57.915Z,28.50
2017-03-24T10:35:58.050Z,28.70
2017-03-24T10:36:58.030Z,28.10
2017-03-24T10:37:58.018Z,28.40
2017-03-24T10:38:58.035Z,28.70
2017-03-24T10:39:57.973Z,29.10
2017-03-24T10:40:57.961Z,29.00
2017-03-24T10:41:57.986Z,28.80
2017-03-24T10:42:57.930Z,28.00
2017-03-24T10:43:57.916Z,27.10
2017-03-24T10:44:58.008Z,25.90
2017-03-24T10:45:57.979Z,25.80
2017-03-24T10:46:57.937Z,25.70
2017-03-24T10:47:58.590Z,26.00
2017-03-24T10:48:58.535Z,26.20
2017-03-24T10:49:58.509Z,27.20
2017-03-24T10:50:58.559Z,27.10
2017-03-24T10:51:58.575Z,27.20
2017-03-24T10:52:58.538Z,27.40
2017-03-24T10:53:58.517Z,27.00
2017-03-24T10:54:58.489Z,26.50
2017-03-24T10:55:58.484Z,26.20
2017-03-24T10:56:58.484Z,26.60
2017-03-24T10:57:59.186Z,26.70
2017-03-24T10:58:59.181Z,26.70
2017-03-24T10:59:59.156Z,27.00
2017-03-24T11:00:59.196Z,27.30
2017-03-24T11:01:59.193Z,27.10
2017-03-24T11:02:59.333Z,26.60
2017-03-24T11:03:59.313Z,26.50
2017-03-24T11:04:59.645Z,26.00
2017-03-24T11:05:59.631Z,25.80
2017-03-24T11:06:59.600Z,26.10
2017-03-24T11:07:59.569Z,26.30
2017-03-24T11:09:00.118Z,26.30
2017-03-24T11:10:00.120Z,26.40
2017-03-24T11:11:01.355Z,26.10
2017-03-24T11:12:01.337Z,26.00
2017-03-24T11:13:01.314Z,25.60
2017-03-24T11:14:01.268Z,25.00
2017-03-24T11:15:01.227Z,24.50
2017-03-24T11:16:01.277Z,24.20
2017-03-24T11:17:01.354Z,24.00
2017-03-24T11:18:01.330Z,23.70
2017-03-24T11:19:01.317Z,23.60
2017-03-24T11:20:01.303Z,23.90
2017-03-24T11:21:01.285Z,24.40
2017-03-24T11:22:01.509Z,24.40
2017-03-24T11:23:01.613Z,24.00
2017-03-24T11:24:02.314Z,24.20
2017-03-24T11:28:31.162Z,24.00
2017-03-24T11:29:31.137Z,23.90
2017-03-24T11:30:31.087Z,24.40
2017-03-24T11:31:31.113Z,24.50
2017-03-24T11:32:31.093Z,24.60
2017-03-24T11:33:31.130Z,24.50
2017-03-24T11:34:31.138Z,24.80
2017-03-24T11:35:31.166Z,24.60
2017-03-24T11:36:31.121Z,25.30
2017-03-24T11:37:31.097Z,26.00
2017-03-24T11:38:31.857Z,26.30
2017-03-24T11:39:31.900Z,26.40
2017-03-24T11:40:31.880Z,26.70
2017-03-24T11:41:31.841Z,26.40
2017-03-24T11:42:31.831Z,26.50
2017-03-24T11:43:31.802Z,26.30
2017-03-24T11:44:31.807Z,26.10
2017-03-24T11:45:31.790Z,25.80
2017-03-24T11:46:31.774Z,26.00
2017-03-24T11:47:32.499Z,26.00
2017-03-24T11:48:33.241Z,25.20
2017-03-24T11:49:33.237Z,24.70
2017-03-24T11:50:33.218Z,24.40
2017-03-24T11:51:33.206Z,24.20
2017-03-24T11:52:33.150Z,23.60
2017-03-24T11:53:33.145Z,23.10
2017-03-24T11:54:33.107Z,23.50
2017-03-24T11:55:33.082Z,24.30
2017-03-24T11:56:33.094Z,24.30
2017-03-24T11:57:33.101Z,24.70
2017-03-24T11:58:33.115Z,24.60
2017-03-24T11:59:33.186Z,24.20
2017-03-24T12:00:33.194Z,24.00
2017-03-24T12:01:33.918Z,24.20
2017-03-24T12:02:33.885Z,24.80
2017-03-24T12:04:48.026Z,23.80
2017-03-24T12:05:47.997Z,23.50
2017-03-24T12:06:47.978Z,23.00
2017-03-24T12:07:48.057Z,22.80
2017-03-24T12:08:48.041Z,23.30
2017-03-24T12:09:48.025Z,23.40
2017-03-24T12:10:48.001Z,23.50
2017-03-24T12:11:48.009Z,24.90
2017-03-24T12:12:47.964Z,25.10
2017-03-24T12:13:47.934Z,25.00
2017-03-24T12:14:47.945Z,25.10
2017-03-24T12:15:48.644Z,25.50
2017-03-24T12:16:48.610Z,25.30
2017-03-24T12:17:48.590Z,25.20
2017-03-24T12:18:48.566Z,24.70
2017-03-24T12:19:48.568Z,24.30
2017-03-24T12:20:48.766Z,24.20
2017-03-24T12:21:48.824Z,24.20
2017-03-24T12:22:48.788Z,23.90
2017-03-24T12:23:48.754Z,23.40
2017-03-24T12:24:48.786Z,23.00
2017-03-24T12:25:48.771Z,22.60
2017-03-24T12:26:48.775Z,22.40
2017-03-24T12:27:48.869Z,22.60
2017-03-24T12:28:48.871Z,22.70
2017-03-24T12:29:48.857Z,23.10
2017-03-24T12:30:48.848Z,23.60
2017-03-24T12:31:48.844Z,23.50
2017-03-24T12:32:48.817Z,23.70
2017-03-24T12:33:48.861Z,23.40
2017-03-24T12:34:48.851Z,23.80
2017-03-24T12:35:48.877Z,24.20
2017-03-24T12:36:48.941Z,24.30
2017-03-24T12:37:48.952Z,24.10
2017-03-24T12:38:48.973Z,23.50
2017-03-24T12:39:49.861Z,23.20
2017-03-24T12:40:49.890Z,24.60
2017-03-24T12:41:49.826Z,24.70
2017-03-24T12:42:49.855Z,24.70
2017-03-24T12:43:49.826Z,24.70
2017-03-24T12:44:49.830Z,24.60
2017-03-24T12:45:49.799Z,24.40
2017-03-24T12:46:49.793Z,24.50
2017-03-24T12:47:50.586Z,24.30
2017-03-24T12:48:50.558Z,23.90
2017-03-24T12:49:50.528Z,23.70
2017-03-24T12:50:50.514Z,23.40
2017-03-24T12:51:50.522Z,23.20
2017-03-24T12:52:50.482Z,23.00
2017-03-24T12:53:50.574Z,23.20
2017-03-24T12:54:50.581Z,23.20
2017-03-24T12:55:50.591Z,22.70
2017-03-24T12:56:50.618Z,22.00
2017-03-24T12:57:50.571Z,21.60
2017-03-24T12:58:50.532Z,21.40